createdAt,value
2023-01-17T00:04:09.342Z,974.4
2023-01-17T00:19:43.956Z,974.4
2023-01-17T00:35:18.396Z,974.8
2023-01-17T00:50:53.123Z,975
2023-01-17T01:06:27.686Z,975.2
2023-01-17T01:22:02.297Z,975.6
2023-01-17T01:37:36.913Z,975.8
2023-01-17T01:53:11.781Z,975.9
2023-01-17T02:08:46.332Z,976.1
2023-01-17T02:24:20.940Z,976.1
2023-01-17T02:39:55.512Z,976.4
2023-01-17T02:55:30.096Z,976.6
2023-01-17T03:11:04.645Z,976.7
2023-01-17T03:26:39.240Z,977
2023-01-17T03:42:13.791Z,977.1
2023-01-17T03:57:48.343Z,977.2
2023-01-17T04:13:22.911Z,977.3
2023-01-17T04:28:57.499Z,977.3
2023-01-17T04:44:32.079Z,977.5
2023-01-17T05:00:06.651Z,977.8
2023-01-17T05:15:41.277Z,978.1
2023-01-17T05:31:16.422Z,978.4
2023-01-17T05:46:51.138Z,978.7
2023-01-17T06:02:25.745Z,978.8
2023-01-17T06:18:00.308Z,979
2023-01-17T06:33:34.888Z,979.2
2023-01-17T06:49:09.465Z,979.6
2023-01-17T07:04:44.067Z,979.8
2023-01-17T07:20:18.626Z,979.9
2023-01-17T07:35:53.225Z,979.9
2023-01-17T07:51:27.844Z,980.1
2023-01-17T08:07:02.429Z,980.4
2023-01-17T08:22:37.031Z,980.5
2023-01-17T08:38:11.650Z,980.7
2023-01-17T08:53:46.235Z,980.9
2023-01-17T09:09:20.904Z,980.9
2023-01-17T09:24:55.491Z,981
2023-01-17T09:40:30.080Z,981.1
2023-01-17T09:56:04.847Z,981.1
2023-01-17T10:11:39.479Z,981.1
2023-01-17T10:27:14.097Z,981.1
2023-01-17T10:42:48.996Z,981.2
2023-01-17T10:58:23.609Z,981.1
2023-01-17T11:13:58.262Z,980.9
2023-01-17T11:29:34.160Z,980.9
2023-01-17T11:45:09.535Z,981
2023-01-17T12:00:44.148Z,981.1
2023-01-17T12:16:19.018Z,981.2
2023-01-17T12:31:53.695Z,981.2
2023-01-17T12:47:28.551Z,981.1
2023-01-17T13:03:03.195Z,981.1
2023-01-17T13:18:37.792Z,981.1
2023-01-17T13:34:12.395Z,981.2
2023-01-17T13:49:47.016Z,981.3
2023-01-17T14:05:21.815Z,981.4
2023-01-17T14:20:56.428Z,981.5
2023-01-17T14:36:30.994Z,981.4
2023-01-17T14:52:05.557Z,981.4
2023-01-17T15:07:40.157Z,981.4
2023-01-17T15:23:14.777Z,981.4
2023-01-17T15:38:49.355Z,981.3
2023-01-17T15:54:23.927Z,981.2
2023-01-17T16:09:58.488Z,981
2023-01-17T16:25:33.101Z,981.2
2023-01-17T16:41:07.691Z,981.2
2023-01-17T16:56:42.304Z,981.1
2023-01-17T17:12:16.883Z,981.1
2023-01-17T17:27:51.736Z,981.1
2023-01-17T17:43:26.640Z,981.4
2023-01-17T17:59:01.356Z,981.5
2023-01-17T18:14:35.971Z,981.6
2023-01-17T18:30:10.672Z,981.6
2023-01-17T18:45:45.319Z,981.8
2023-01-17T19:01:20.273Z,981.9
2023-01-17T19:16:55.389Z,981.8
2023-01-17T19:32:29.980Z,982.1
2023-01-17T19:48:04.528Z,982.3
2023-01-17T20:03:39.086Z,982.4
2023-01-17T20:19:13.750Z,982.3
2023-01-17T20:34:48.347Z,982.4
2023-01-17T20:50:22.925Z,982.5
2023-01-17T21:05:57.502Z,982.6
2023-01-17T21:37:09.554Z,983
2023-01-17T21:52:45.275Z,983.4
2023-01-17T22:08:21.001Z,983.7
2023-01-17T22:23:55.520Z,983.8
2023-01-17T22:39:29.910Z,983.7
2023-01-17T22:55:04.321Z,983.6
2023-01-17T23:10:38.748Z,983.6
2023-01-17T23:26:13.092Z,983.5
2023-01-17T23:41:47.443Z,983.5
2023-01-17T23:57:21.777Z,983.4
